sensor_id;sensor_type;location;lat;lon;timestamp;pressure;altitude;pressure_sealevel;temperature;humidity
33795;BME280;51430;52.242;21.118;2022-11-15T00:01:17;100793.84;;;6.70;96.67
33795;BME280;51430;52.242;21.118;2022-11-15T00:03:46;100792.48;;;6.60;96.83
33795;BME280;51430;52.242;21.118;2022-11-15T00:06:18;100787.70;;;6.65;96.92
33795;BME280;51430;52.242;21.118;2022-11-15T00:08:46;100782.59;;;6.67;96.95
33795;BME280;51430;52.242;21.118;2022-11-15T00:11:14;100780.04;;;6.66;96.79
33795;BME280;51430;52.242;21.118;2022-11-15T00:13:42;100773.11;;;6.63;97.16
33795;BME280;51430;52.242;21.118;2022-11-15T00:16:11;100771.55;;;6.66;96.99
33795;BME280;51430;52.242;21.118;2022-11-15T00:18:39;100772.65;;;6.71;96.85
33795;BME280;51430;52.242;21.118;2022-11-15T00:21:12;100770.06;;;6.71;97.02
33795;BME280;51430;52.242;21.118;2022-11-15T00:23:40;100768.92;;;6.70;97.00
33795;BME280;51430;52.242;21.118;2022-11-15T00:26:13;100767.83;;;6.67;97.14
33795;BME280;51430;52.242;21.118;2022-11-15T00:28:42;100762.77;;;6.55;97.54
33795;BME280;51430;52.242;21.118;2022-11-15T00:31:12;100753.55;;;6.56;97.84
33795;BME280;51430;52.242;21.118;2022-11-15T00:33:43;100750.08;;;6.59;98.10
33795;BME280;51430;52.242;21.118;2022-11-15T00:36:12;100746.88;;;6.54;98.18
33795;BME280;51430;52.242;21.118;2022-11-15T00:38:40;100743.84;;;6.53;98.54
33795;BME280;51430;52.242;21.118;2022-11-15T00:41:08;100743.18;;;6.58;98.38
33795;BME280;51430;52.242;21.118;2022-11-15T00:43:37;100736.45;;;6.64;98.09
33795;BME280;51430;52.242;21.118;2022-11-15T00:46:08;100733.00;;;6.68;97.91
33795;BME280;51430;52.242;21.118;2022-11-15T00:48:37;100725.37;;;6.70;97.73
33795;BME280;51430;52.242;21.118;2022-11-15T00:51:05;100723.21;;;6.66;97.88
33795;BME280;51430;52.242;21.118;2022-11-15T00:53:34;100716.61;;;6.63;98.25
33795;BME280;51430;52.242;21.118;2022-11-15T00:56:02;100713.16;;;6.66;98.38
33795;BME280;51430;52.242;21.118;2022-11-15T00:58:31;100714.97;;;6.68;98.33
33795;BME280;51430;52.242;21.118;2022-11-15T01:01:13;100704.84;;;6.66;98.36
33795;BME280;51430;52.242;21.118;2022-11-15T01:03:50;100700.80;;;6.67;98.41
33795;BME280;51430;52.242;21.118;2022-11-15T01:06:18;100698.23;;;6.73;98.47
33795;BME280;51430;52.242;21.118;2022-11-15T01:08:47;100695.64;;;6.76;98.37
33795;BME280;51430;52.242;21.118;2022-11-15T01:11:15;100693.11;;;6.81;98.24
33795;BME280;51430;52.242;21.118;2022-11-15T01:13:43;100694.64;;;6.81;98.01
33795;BME280;51430;52.242;21.118;2022-11-15T01:16:16;100691.77;;;6.77;98.34
33795;BME280;51430;52.242;21.118;2022-11-15T01:18:47;100690.88;;;6.68;98.43
33795;BME280;51430;52.242;21.118;2022-11-15T01:21:18;100684.58;;;6.69;98.62
33795;BME280;51430;52.242;21.118;2022-11-15T01:23:47;100679.86;;;6.61;98.89
33795;BME280;51430;52.242;21.118;2022-11-15T01:26:15;100677.98;;;6.57;99.23
33795;BME280;51430;52.242;21.118;2022-11-15T01:28:44;100671.67;;;6.58;99.33
33795;BME280;51430;52.242;21.118;2022-11-15T01:31:16;100666.77;;;6.59;99.32
33795;BME280;51430;52.242;21.118;2022-11-15T01:33:45;100659.11;;;6.53;99.49
33795;BME280;51430;52.242;21.118;2022-11-15T01:36:19;100657.36;;;6.54;99.81
33795;BME280;51430;52.242;21.118;2022-11-15T01:38:54;100653.13;;;6.55;99.79
33795;BME280;51430;52.242;21.118;2022-11-15T01:41:31;100650.60;;;6.51;99.82
33795;BME280;51430;52.242;21.118;2022-11-15T01:47:12;100637.91;;;6.42;100.00
33795;BME280;51430;52.242;21.118;2022-11-15T01:52:22;100641.02;;;6.48;100.00
33795;BME280;51430;52.242;21.118;2022-11-15T01:54:59;100640.55;;;6.51;100.00
33795;BME280;51430;52.242;21.118;2022-11-15T01:57:47;100624.20;;;6.46;100.00
33795;BME280;51430;52.242;21.118;2022-11-15T02:00:30;100634.05;;;6.46;100.00
33795;BME280;51430;52.242;21.118;2022-11-15T02:02:59;100626.70;;;6.42;100.00
33795;BME280;51430;52.242;21.118;2022-11-15T02:05:28;100629.02;;;6.44;100.00
33795;BME280;51430;52.242;21.118;2022-11-15T02:08:00;100628.23;;;6.45;100.00
33795;BME280;51430;52.242;21.118;2022-11-15T02:10:28;100628.23;;;6.51;100.00
33795;BME280;51430;52.242;21.118;2022-11-15T02:12:58;100624.48;;;6.54;100.00
33795;BME280;51430;52.242;21.118;2022-11-15T02:15:34;100619.27;;;6.54;100.00
33795;BME280;51430;52.242;21.118;2022-11-15T02:18:20;100615.98;;;6.54;100.00
33795;BME280;51430;52.242;21.118;2022-11-15T02:21:04;100612.61;;;6.43;99.97
33795;BME280;51430;52.242;21.118;2022-11-15T02:29:31;100602.54;;;6.40;100.00
33795;BME280;51430;52.242;21.118;2022-11-15T02:32:07;100607.77;;;6.52;100.00
33795;BME280;51430;52.242;21.118;2022-11-15T02:37:52;100603.27;;;6.36;100.00
33795;BME280;51430;52.242;21.118;2022-11-15T02:43:30;100604.49;;;6.39;100.00
33795;BME280;51430;52.242;21.118;2022-11-15T02:49:32;100600.30;;;6.27;100.00
33795;BME280;51430;52.242;21.118;2022-11-15T02:52:01;100595.23;;;6.31;100.00
33795;BME280;51430;52.242;21.118;2022-11-15T02:54:32;100594.48;;;6.35;100.00
33795;BME280;51430;52.242;21.118;2022-11-15T02:57:17;100585.81;;;6.36;100.00
33795;BME280;51430;52.242;21.118;2022-11-15T02:59:59;100582.33;;;6.30;100.00
33795;BME280;51430;52.242;21.118;2022-11-15T03:02:46;100578.13;;;6.25;100.00
33795;BME280;51430;52.242;21.118;2022-11-15T03:05:42;100574.10;;;6.32;100.00
33795;BME280;51430;52.242;21.118;2022-11-15T03:11:17;100565.20;;;6.45;100.00
33795;BME280;51430;52.242;21.118;2022-11-15T03:13:56;100566.95;;;6.42;100.00
33795;BME280;51430;52.242;21.118;2022-11-15T03:16:34;100563.31;;;6.39;100.00
33795;BME280;51430;52.242;21.118;2022-11-15T03:22:12;100560.84;;;6.21;100.00
33795;BME280;51430;52.242;21.118;2022-11-15T03:24:45;100547.23;;;6.26;100.00
33795;BME280;51430;52.242;21.118;2022-11-15T03:27:19;100543.66;;;6.31;100.00
33795;BME280;51430;52.242;21.118;2022-11-15T03:29:56;100536.73;;;6.31;100.00
33795;BME280;51430;52.242;21.118;2022-11-15T03:32:30;100528.95;;;6.34;100.00
33795;BME280;51430;52.242;21.118;2022-11-15T03:35:24;100530.77;;;6.32;100.00
33795;BME280;51430;52.242;21.118;2022-11-15T03:38:24;100529.34;;;6.24;100.00
33795;BME280;51430;52.242;21.118;2022-11-15T03:41:03;100523.19;;;6.26;100.00
33795;BME280;51430;52.242;21.118;2022-11-15T03:43:47;100522.01;;;6.28;100.00
33795;BME280;51430;52.242;21.118;2022-11-15T03:46:27;100512.50;;;6.28;100.00
33795;BME280;51430;52.242;21.118;2022-11-15T03:49:11;100504.94;;;6.27;100.00
33795;BME280;51430;52.242;21.118;2022-11-15T03:51:41;100509.02;;;6.29;100.00
33795;BME280;51430;52.242;21.118;2022-11-15T03:54:12;100506.73;;;6.29;100.00
33795;BME280;51430;52.242;21.118;2022-11-15T03:56:45;100511.35;;;6.33;100.00
33795;BME280;51430;52.242;21.118;2022-11-15T03:59:13;100504.45;;;6.26;100.00
33795;BME280;51430;52.242;21.118;2022-11-15T04:01:41;100501.38;;;6.32;100.00
33795;BME280;51430;52.242;21.118;2022-11-15T04:04:09;100499.20;;;6.24;100.00
33795;BME280;51430;52.242;21.118;2022-11-15T04:06:37;100502.38;;;6.26;100.00
33795;BME280;51430;52.242;21.118;2022-11-15T04:09:06;100496.48;;;6.17;100.00
33795;BME280;51430;52.242;21.118;2022-11-15T04:11:34;100490.55;;;6.15;100.00
33795;BME280;51430;52.242;21.118;2022-11-15T04:14:02;100490.83;;;6.20;100.00
33795;BME280;51430;52.242;21.118;2022-11-15T04:16:30;100487.99;;;6.17;100.00
33795;BME280;51430;52.242;21.118;2022-11-15T04:18:59;100487.41;;;6.15;100.00
33795;BME280;51430;52.242;21.118;2022-11-15T04:21:45;100483.53;;;6.11;100.00
33795;BME280;51430;52.242;21.118;2022-11-15T04:24:32;100483.03;;;6.10;100.00
33795;BME280;51430;52.242;21.118;2022-11-15T04:27:00;100484.73;;;6.14;100.00
33795;BME280;51430;52.242;21.118;2022-11-15T04:29:29;100477.42;;;6.11;100.00
33795;BME280;51430;52.242;21.118;2022-11-15T04:32:05;100470.76;;;6.10;100.00
33795;BME280;51430;52.242;21.118;2022-11-15T04:34:34;100472.08;;;6.14;100.00
33795;BME280;51430;52.242;21.118;2022-11-15T04:37:03;100468.30;;;6.11;100.00
33795;BME280;51430;52.242;21.118;2022-11-15T04:39:40;100466.78;;;6.07;100.00
33795;BME280;51430;52.242;21.118;2022-11-15T04:42:09;100466.48;;;6.15;100.00
33795;BME280;51430;52.242;21.118;2022-11-15T04:44:38;100467.52;;;6.18;100.00
33795;BME280;51430;52.242;21.118;2022-11-15T04:47:06;100466.63;;;6.22;100.00
33795;BME280;51430;52.242;21.118;2022-11-15T04:49:34;100464.67;;;6.16;100.00
33795;BME280;51430;52.242;21.118;2022-11-15T04:52:03;100465.30;;;6.21;100.00
33795;BME280;51430;52.242;21.118;2022-11-15T04:54:31;100464.06;;;6.21;100.00
33795;BME280;51430;52.242;21.118;2022-11-15T04:56:59;100464.35;;;6.25;100.00
33795;BME280;51430;52.242;21.118;2022-11-15T04:59:28;100463.46;;;6.26;100.00
33795;BME280;51430;52.242;21.118;2022-11-15T05:01:56;100457.96;;;6.22;100.00
33795;BME280;51430;52.242;21.118;2022-11-15T05:04:24;100458.89;;;6.18;100.00
33795;BME280;51430;52.242;21.118;2022-11-15T05:06:52;100461.65;;;6.18;100.00
33795;BME280;51430;52.242;21.118;2022-11-15T05:09:21;100460.85;;;6.17;100.00
33795;BME280;51430;52.242;21.118;2022-11-15T05:11:49;100456.68;;;6.17;100.00
33795;BME280;51430;52.242;21.118;2022-11-15T05:14:17;100460.98;;;6.11;100.00
33795;BME280;51430;52.242;21.118;2022-11-15T05:16:46;100453.48;;;6.12;100.00
33795;BME280;51430;52.242;21.118;2022-11-15T05:19:14;100451.98;;;6.18;100.00
33795;BME280;51430;52.242;21.118;2022-11-15T05:21:42;100446.10;;;6.24;100.00
33795;BME280;51430;52.242;21.118;2022-11-15T05:24:10;100445.11;;;6.26;100.00
33795;BME280;51430;52.242;21.118;2022-11-15T05:26:39;100444.60;;;6.32;100.00
33795;BME280;51430;52.242;21.118;2022-11-15T05:29:09;100443.60;;;6.31;100.00
33795;BME280;51430;52.242;21.118;2022-11-15T05:31:39;100448.44;;;6.22;100.00
33795;BME280;51430;52.242;21.118;2022-11-15T05:34:10;100446.73;;;6.16;100.00
33795;BME280;51430;52.242;21.118;2022-11-15T05:36:42;100442.62;;;6.21;100.00
33795;BME280;51430;52.242;21.118;2022-11-15T05:39:12;100444.45;;;6.16;100.00
33795;BME280;51430;52.242;21.118;2022-11-15T05:41:54;100444.74;;;6.26;100.00
33795;BME280;51430;52.242;21.118;2022-11-15T05:44:24;100446.04;;;6.19;100.00
33795;BME280;51430;52.242;21.118;2022-11-15T05:46:55;100437.42;;;6.24;100.00
33795;BME280;51430;52.242;21.118;2022-11-15T05:49:28;100442.04;;;6.22;100.00
33795;BME280;51430;52.242;21.118;2022-11-15T05:51:58;100445.12;;;6.20;100.00
33795;BME280;51430;52.242;21.118;2022-11-15T05:54:27;100443.88;;;6.17;100.00
33795;BME280;51430;52.242;21.118;2022-11-15T05:56:55;100443.23;;;6.19;100.00
33795;BME280;51430;52.242;21.118;2022-11-15T05:59:39;100441.66;;;6.20;100.00
33795;BME280;51430;52.242;21.118;2022-11-15T06:02:27;100436.10;;;6.20;100.00
33795;BME280;51430;52.242;21.118;2022-11-15T06:05:15;100433.86;;;6.26;100.00
33795;BME280;51430;52.242;21.118;2022-11-15T06:08:02;100434.49;;;6.21;100.00
33795;BME280;51430;52.242;21.118;2022-11-15T06:10:30;100435.64;;;6.28;100.00
33795;BME280;51430;52.242;21.118;2022-11-15T06:13:05;100437.30;;;6.26;100.00
33795;BME280;51430;52.242;21.118;2022-11-15T06:15:55;100437.86;;;6.22;100.00
33795;BME280;51430;52.242;21.118;2022-11-15T06:18:37;100436.50;;;6.25;100.00
33795;BME280;51430;52.242;21.118;2022-11-15T06:21:05;100436.36;;;6.27;100.00
33795;BME280;51430;52.242;21.118;2022-11-15T06:23:35;100438.52;;;6.29;100.00
33795;BME280;51430;52.242;21.118;2022-11-15T06:26:22;100443.55;;;6.20;100.00
33795;BME280;51430;52.242;21.118;2022-11-15T06:28:50;100445.96;;;6.23;100.00
33795;BME280;51430;52.242;21.118;2022-11-15T06:31:37;100451.36;;;6.20;100.00
33795;BME280;51430;52.242;21.118;2022-11-15T06:34:05;100448.82;;;6.18;100.00
33795;BME280;51430;52.242;21.118;2022-11-15T06:36:52;100442.70;;;6.16;100.00
33795;BME280;51430;52.242;21.118;2022-11-15T06:39:20;100445.10;;;6.20;100.00
33795;BME280;51430;52.242;21.118;2022-11-15T06:41:48;100445.95;;;6.20;100.00
33795;BME280;51430;52.242;21.118;2022-11-15T06:44:16;100443.19;;;6.20;100.00
33795;BME280;51430;52.242;21.118;2022-11-15T06:46:44;100443.91;;;6.07;100.00
33795;BME280;51430;52.242;21.118;2022-11-15T06:49:13;100446.48;;;6.02;100.00
33795;BME280;51430;52.242;21.118;2022-11-15T06:51:41;100443.96;;;6.03;100.00
33795;BME280;51430;52.242;21.118;2022-11-15T06:54:09;100447.73;;;6.04;100.00
33795;BME280;51430;52.242;21.118;2022-11-15T06:56:37;100457.52;;;6.08;100.00
33795;BME280;51430;52.242;21.118;2022-11-15T06:59:05;100453.46;;;6.13;100.00
33795;BME280;51430;52.242;21.118;2022-11-15T07:01:33;100455.36;;;6.16;100.00
33795;BME280;51430;52.242;21.118;2022-11-15T07:04:02;100457.88;;;6.05;100.00
33795;BME280;51430;52.242;21.118;2022-11-15T07:06:34;100459.09;;;6.11;100.00
33795;BME280;51430;52.242;21.118;2022-11-15T07:09:03;100455.81;;;6.17;100.00
33795;BME280;51430;52.242;21.118;2022-11-15T07:11:33;100453.98;;;6.19;100.00
33795;BME280;51430;52.242;21.118;2022-11-15T07:14:01;100453.16;;;6.24;100.00
33795;BME280;51430;52.242;21.118;2022-11-15T07:16:30;100449.73;;;6.30;100.00
33795;BME280;51430;52.242;21.118;2022-11-15T07:18:58;100451.54;;;6.28;100.00
33795;BME280;51430;52.242;21.118;2022-11-15T07:21:26;100450.97;;;6.08;100.00
33795;BME280;51430;52.242;21.118;2022-11-15T07:23:55;100453.77;;;6.01;100.00
33795;BME280;51430;52.242;21.118;2022-11-15T07:26:23;100454.95;;;6.08;100.00
33795;BME280;51430;52.242;21.118;2022-11-15T07:28:52;100454.90;;;6.18;100.00
33795;BME280;51430;52.242;21.118;2022-11-15T07:31:20;100449.69;;;6.18;100.00
33795;BME280;51430;52.242;21.118;2022-11-15T07:33:48;100450.06;;;6.27;100.00
33795;BME280;51430;52.242;21.118;2022-11-15T07:36:17;100448.13;;;6.28;100.00
33795;BME280;51430;52.242;21.118;2022-11-15T07:38:45;100446.00;;;6.22;100.00
33795;BME280;51430;52.242;21.118;2022-11-15T07:41:14;100448.48;;;6.18;100.00
33795;BME280;51430;52.242;21.118;2022-11-15T07:43:42;100446.54;;;6.19;100.00
33795;BME280;51430;52.242;21.118;2022-11-15T07:46:10;100444.92;;;6.29;100.00
33795;BME280;51430;52.242;21.118;2022-11-15T07:48:38;100442.50;;;6.38;100.00
33795;BME280;51430;52.242;21.118;2022-11-15T07:51:14;100448.03;;;6.32;100.00
33795;BME280;51430;52.242;21.118;2022-11-15T07:53:43;100448.11;;;6.19;100.00
33795;BME280;51430;52.242;21.118;2022-11-15T07:56:12;100441.97;;;6.20;100.00
33795;BME280;51430;52.242;21.118;2022-11-15T07:58:40;100439.34;;;6.15;100.00
33795;BME280;51430;52.242;21.118;2022-11-15T08:01:09;100432.84;;;6.16;100.00
33795;BME280;51430;52.242;21.118;2022-11-15T08:03:56;100429.81;;;6.39;100.00
33795;BME280;51430;52.242;21.118;2022-11-15T08:06:25;100428.13;;;6.41;100.00
33795;BME280;51430;52.242;21.118;2022-11-15T08:09:11;100421.92;;;6.28;100.00
33795;BME280;51430;52.242;21.118;2022-11-15T08:11:40;100417.73;;;6.35;100.00
33795;BME280;51430;52.242;21.118;2022-11-15T08:14:27;100419.08;;;6.45;100.00
33795;BME280;51430;52.242;21.118;2022-11-15T08:16:55;100413.14;;;6.37;99.91
33795;BME280;51430;52.242;21.118;2022-11-15T08:19:42;100410.36;;;6.19;99.72
33795;BME280;51430;52.242;21.118;2022-11-15T08:22:10;100403.36;;;6.32;100.00
33795;BME280;51430;52.242;21.118;2022-11-15T08:24:38;100404.20;;;6.42;99.64
33795;BME280;51430;52.242;21.118;2022-11-15T08:27:07;100403.16;;;6.47;99.20
33795;BME280;51430;52.242;21.118;2022-11-15T08:29:54;100398.09;;;6.51;98.71
33795;BME280;51430;52.242;21.118;2022-11-15T08:32:27;100396.91;;;6.48;98.44
33795;BME280;51430;52.242;21.118;2022-11-15T08:34:55;100400.90;;;6.48;98.49
33795;BME280;51430;52.242;21.118;2022-11-15T08:37:23;100402.54;;;6.55;98.15
33795;BME280;51430;52.242;21.118;2022-11-15T08:39:52;100403.23;;;6.66;97.56
33795;BME280;51430;52.242;21.118;2022-11-15T08:42:20;100401.02;;;6.69;96.95
33795;BME280;51430;52.242;21.118;2022-11-15T08:44:48;100397.38;;;6.49;96.99
33795;BME280;51430;52.242;21.118;2022-11-15T08:47:16;100395.44;;;6.34;97.67
33795;BME280;51430;52.242;21.118;2022-11-15T08:49:45;100395.94;;;6.32;98.17
33795;BME280;51430;52.242;21.118;2022-11-15T08:52:13;100391.69;;;6.48;98.57
33795;BME280;51430;52.242;21.118;2022-11-15T08:54:42;100394.98;;;6.48;98.16
33795;BME280;51430;52.242;21.118;2022-11-15T08:57:10;100392.54;;;6.31;98.67
33795;BME280;51430;52.242;21.118;2022-11-15T08:59:38;100393.20;;;6.13;99.06
33795;BME280;51430;52.242;21.118;2022-11-15T09:02:12;100392.41;;;6.15;99.73
33795;BME280;51430;52.242;21.118;2022-11-15T09:04:42;100393.04;;;6.34;99.59
33795;BME280;51430;52.242;21.118;2022-11-15T09:07:11;100391.95;;;6.32;98.72
33795;BME280;51430;52.242;21.118;2022-11-15T09:09:40;100391.61;;;6.38;98.44
33795;BME280;51430;52.242;21.118;2022-11-15T09:12:08;100386.34;;;6.36;98.19
33795;BME280;51430;52.242;21.118;2022-11-15T09:14:36;100387.28;;;6.32;97.90
33795;BME280;51430;52.242;21.118;2022-11-15T09:17:08;100381.93;;;6.29;97.73
33795;BME280;51430;52.242;21.118;2022-11-15T09:19:36;100381.06;;;6.35;97.69
33795;BME280;51430;52.242;21.118;2022-11-15T09:22:06;100374.77;;;6.50;97.24
33795;BME280;51430;52.242;21.118;2022-11-15T09:24:36;100371.14;;;6.67;96.68
33795;BME280;51430;52.242;21.118;2022-11-15T09:27:04;100361.46;;;6.87;96.31
33795;BME280;51430;52.242;21.118;2022-11-15T09:29:33;100358.06;;;7.00;95.59
33795;BME280;51430;52.242;21.118;2022-11-15T09:32:01;100352.98;;;7.12;95.15
33795;BME280;51430;52.242;21.118;2022-11-15T09:34:30;100353.40;;;7.19;94.42
33795;BME280;51430;52.242;21.118;2022-11-15T09:36:58;100347.55;;;7.19;94.11
33795;BME280;51430;52.242;21.118;2022-11-15T09:39:26;100342.52;;;7.16;94.16
33795;BME280;51430;52.242;21.118;2022-11-15T09:45:13;100340.07;;;7.08;94.44
33795;BME280;51430;52.242;21.118;2022-11-15T09:53:03;100330.42;;;6.87;95.01
33795;BME280;51430;52.242;21.118;2022-11-15T09:55:40;100332.95;;;6.80;95.60
33795;BME280;51430;52.242;21.118;2022-11-15T09:58:59;100326.45;;;6.79;95.84
33795;BME280;51430;52.242;21.118;2022-11-15T10:04:18;100322.71;;;6.72;96.25
33795;BME280;51430;52.242;21.118;2022-11-15T10:07:12;100323.97;;;6.74;96.15
33795;BME280;51430;52.242;21.118;2022-11-15T10:09:51;100318.38;;;6.69;96.31
33795;BME280;51430;52.242;21.118;2022-11-15T10:12:21;100312.30;;;6.78;96.37
33795;BME280;51430;52.242;21.118;2022-11-15T10:15:00;100306.77;;;6.83;96.27
33795;BME280;51430;52.242;21.118;2022-11-15T10:20:46;100310.77;;;7.05;95.94
33795;BME280;51430;52.242;21.118;2022-11-15T10:23:19;100308.91;;;7.26;95.49
33795;BME280;51430;52.242;21.118;2022-11-15T10:25:52;100312.09;;;7.36;94.59
33795;BME280;51430;52.242;21.118;2022-11-15T10:28:30;100311.31;;;7.21;94.12
33795;BME280;51430;52.242;21.118;2022-11-15T10:31:00;100312.30;;;7.11;94.60
33795;BME280;51430;52.242;21.118;2022-11-15T10:46:45;100287.52;;;6.97;95.11
33795;BME280;51430;52.242;21.118;2022-11-15T10:49:21;100287.06;;;6.99;95.40
33795;BME280;51430;52.242;21.118;2022-11-15T10:51:53;100290.54;;;7.10;95.50
33795;BME280;51430;52.242;21.118;2022-11-15T10:54:23;100287.62;;;7.18;95.05
33795;BME280;51430;52.242;21.118;2022-11-15T10:56:56;100283.27;;;7.15;94.96
33795;BME280;51430;52.242;21.118;2022-11-15T10:59:48;100280.42;;;7.22;94.79
33795;BME280;51430;52.242;21.118;2022-11-15T11:02:31;100278.64;;;7.14;94.67
33795;BME280;51430;52.242;21.118;2022-11-15T11:08:23;100275.64;;;7.23;95.01
33795;BME280;51430;52.242;21.118;2022-11-15T11:11:00;100265.61;;;7.28;94.71
33795;BME280;51430;52.242;21.118;2022-11-15T11:13:31;100258.23;;;7.32;94.51
33795;BME280;51430;52.242;21.118;2022-11-15T11:16:21;100258.94;;;7.38;94.07
33795;BME280;51430;52.242;21.118;2022-11-15T11:30:15;100258.56;;;7.52;93.73
33795;BME280;51430;52.242;21.118;2022-11-15T11:35:50;100255.02;;;7.50;93.39
33795;BME280;51430;52.242;21.118;2022-11-15T11:38:50;100250.91;;;7.57;93.73
33795;BME280;51430;52.242;21.118;2022-11-15T11:46:54;100236.00;;;7.54;93.55
33795;BME280;51430;52.242;21.118;2022-11-15T11:49:35;100237.88;;;7.44;93.54
33795;BME280;51430;52.242;21.118;2022-11-15T11:52:38;100233.70;;;7.47;93.86
33795;BME280;51430;52.242;21.118;2022-11-15T11:55:17;100232.04;;;7.56;93.66
33795;BME280;51430;52.242;21.118;2022-11-15T11:58:09;100225.89;;;7.63;93.63
33795;BME280;51430;52.242;21.118;2022-11-15T12:01:02;100220.45;;;7.69;93.26
33795;BME280;51430;52.242;21.118;2022-11-15T12:03:46;100214.90;;;7.71;93.08
33795;BME280;51430;52.242;21.118;2022-11-15T12:09:14;100209.52;;;7.74;92.57
33795;BME280;51430;52.242;21.118;2022-11-15T12:14:35;100199.95;;;7.77;92.81
33795;BME280;51430;52.242;21.118;2022-11-15T12:17:10;100198.48;;;7.88;92.61
33795;BME280;51430;52.242;21.118;2022-11-15T12:19:40;100199.95;;;8.05;92.26
33795;BME280;51430;52.242;21.118;2022-11-15T12:22:16;100201.28;;;8.06;91.65
33795;BME280;51430;52.242;21.118;2022-11-15T12:25:07;100198.56;;;8.00;91.43
33795;BME280;51430;52.242;21.118;2022-11-15T12:27:46;100198.40;;;7.92;91.68
33795;BME280;51430;52.242;21.118;2022-11-15T12:30:20;100189.40;;;7.89;91.78
33795;BME280;51430;52.242;21.118;2022-11-15T12:32:56;100190.51;;;7.96;91.77
33795;BME280;51430;52.242;21.118;2022-11-15T12:35:32;100188.11;;;8.03;91.68
33795;BME280;51430;52.242;21.118;2022-11-15T12:38:03;100185.30;;;8.04;91.85
33795;BME280;51430;52.242;21.118;2022-11-15T12:40:34;100184.66;;;8.18;91.71
33795;BME280;51430;52.242;21.118;2022-11-15T12:45:43;100176.61;;;8.19;90.59
33795;BME280;51430;52.242;21.118;2022-11-15T13:06:53;100168.48;;;8.39;90.21
33795;BME280;51430;52.242;21.118;2022-11-15T13:14:56;100163.83;;;8.50;90.27
33795;BME280;51430;52.242;21.118;2022-11-15T13:17:31;100164.92;;;8.55;90.48
33795;BME280;51430;52.242;21.118;2022-11-15T13:31:02;100153.12;;;8.50;89.90
33795;BME280;51430;52.242;21.118;2022-11-15T13:33:34;100150.91;;;8.42;90.30
33795;BME280;51430;52.242;21.118;2022-11-15T13:36:18;100150.48;;;8.43;90.45
33795;BME280;51430;52.242;21.118;2022-11-15T13:38:56;100150.80;;;8.41;90.51
33795;BME280;51430;52.242;21.118;2022-11-15T13:41:37;100141.88;;;8.42;90.68
33795;BME280;51430;52.242;21.118;2022-11-15T13:44:33;100143.23;;;8.45;90.94
33795;BME280;51430;52.242;21.118;2022-11-15T13:47:22;100140.67;;;8.49;90.95
33795;BME280;51430;52.242;21.118;2022-11-15T13:49:53;100136.94;;;8.50;90.75
33795;BME280;51430;52.242;21.118;2022-11-15T13:52:21;100132.70;;;8.44;90.63
33795;BME280;51430;52.242;21.118;2022-11-15T13:55:04;100134.22;;;8.47;90.71
33795;BME280;51430;52.242;21.118;2022-11-15T13:57:57;100130.89;;;8.45;90.65
33795;BME280;51430;52.242;21.118;2022-11-15T14:00:33;100132.65;;;8.44;90.46
33795;BME280;51430;52.242;21.118;2022-11-15T14:03:26;100132.67;;;8.44;90.62
33795;BME280;51430;52.242;21.118;2022-11-15T14:06:09;100130.10;;;8.41;90.66
33795;BME280;51430;52.242;21.118;2022-11-15T14:08:42;100136.70;;;8.39;90.76
33795;BME280;51430;52.242;21.118;2022-11-15T14:11:25;100138.23;;;8.34;90.94
33795;BME280;51430;52.242;21.118;2022-11-15T14:16:46;100132.38;;;8.26;91.08
33795;BME280;51430;52.242;21.118;2022-11-15T14:24:40;100122.21;;;8.10;91.49
33795;BME280;51430;52.242;21.118;2022-11-15T14:27:22;100123.11;;;8.10;91.81
33795;BME280;51430;52.242;21.118;2022-11-15T14:29:51;100122.33;;;8.08;91.71
33795;BME280;51430;52.242;21.118;2022-11-15T14:32:21;100121.56;;;8.05;91.81
33795;BME280;51430;52.242;21.118;2022-11-15T14:34:59;100118.66;;;8.09;92.00
33795;BME280;51430;52.242;21.118;2022-11-15T14:37:31;100116.18;;;8.04;91.82
33795;BME280;51430;52.242;21.118;2022-11-15T14:40:04;100116.38;;;8.02;92.11
33795;BME280;51430;52.242;21.118;2022-11-15T14:42:33;100111.16;;;8.02;92.11
33795;BME280;51430;52.242;21.118;2022-11-15T14:45:01;100108.08;;;8.03;91.99
33795;BME280;51430;52.242;21.118;2022-11-15T14:47:29;100109.70;;;7.97;92.19
33795;BME280;51430;52.242;21.118;2022-11-15T14:49:57;100111.09;;;7.95;92.40
33795;BME280;51430;52.242;21.118;2022-11-15T14:52:31;100115.08;;;7.98;92.28
33795;BME280;51430;52.242;21.118;2022-11-15T14:55:14;100109.65;;;7.93;92.31
33795;BME280;51430;52.242;21.118;2022-11-15T14:57:43;100113.85;;;7.92;92.52
33795;BME280;51430;52.242;21.118;2022-11-15T15:00:12;100114.81;;;7.91;92.55
33795;BME280;51430;52.242;21.118;2022-11-15T15:02:42;100114.06;;;7.89;92.54
33795;BME280;51430;52.242;21.118;2022-11-15T15:05:17;100116.45;;;7.90;92.67
33795;BME280;51430;52.242;21.118;2022-11-15T15:07:46;100108.52;;;7.89;92.80
33795;BME280;51430;52.242;21.118;2022-11-15T15:10:16;100109.80;;;7.89;92.56
33795;BME280;51430;52.242;21.118;2022-11-15T15:13:05;100112.46;;;7.82;92.50
33795;BME280;51430;52.242;21.118;2022-11-15T15:15:36;100108.55;;;7.79;92.68
33795;BME280;51430;52.242;21.118;2022-11-15T15:18:05;100102.97;;;7.79;92.69
33795;BME280;51430;52.242;21.118;2022-11-15T15:20:38;100102.73;;;7.82;92.70
33795;BME280;51430;52.242;21.118;2022-11-15T15:23:18;100103.47;;;7.85;92.79
33795;BME280;51430;52.242;21.118;2022-11-15T15:25:48;100106.94;;;7.79;92.71
33795;BME280;51430;52.242;21.118;2022-11-15T15:28:21;100110.13;;;7.81;92.73